createdAt,value
2017-08-12T00:00:07.842Z,11.90
2017-08-12T00:01:05.111Z,10.40
2017-08-12T00:02:02.402Z,10.90
2017-08-12T00:02:59.648Z,10.80
2017-08-12T00:03:56.937Z,11.10
2017-08-12T00:04:54.197Z,10.00
2017-08-12T00:05:51.498Z,10.50
2017-08-12T00:06:48.764Z,11.20
2017-08-12T00:07:46.058Z,9.80
2017-08-12T00:08:43.327Z,10.00
2017-08-12T00:09:40.612Z,10.20
2017-08-12T00:10:37.903Z,10.30
2017-08-12T00:11:35.186Z,10.00
2017-08-12T00:12:32.444Z,10.60
2017-08-12T00:13:29.737Z,9.00
2017-08-12T00:14:26.996Z,9.70
2017-08-12T00:15:24.268Z,10.20
2017-08-12T00:16:21.550Z,9.40
2017-08-12T00:17:18.840Z,9.60
2017-08-12T00:18:16.155Z,10.40
2017-08-12T00:19:13.504Z,9.70
2017-08-12T00:20:10.829Z,9.90
2017-08-12T00:21:08.166Z,9.80
2017-08-12T00:22:05.490Z,10.00
2017-08-12T00:23:02.847Z,9.20
2017-08-12T00:24:00.150Z,10.70
2017-08-12T00:24:57.463Z,9.40
2017-08-12T00:25:54.781Z,9.90
2017-08-12T00:26:52.047Z,9.50
2017-08-12T00:27:49.410Z,9.50
2017-08-12T00:28:46.695Z,9.60
2017-08-12T00:29:43.997Z,10.50
2017-08-12T00:30:41.299Z,10.50
2017-08-12T00:31:38.611Z,9.50
2017-08-12T00:32:35.919Z,8.90
2017-08-12T00:33:33.229Z,8.50
2017-08-12T00:34:30.574Z,9.80
2017-08-12T00:35:27.838Z,10.00
2017-08-12T00:36:25.149Z,8.70
2017-08-12T00:37:22.500Z,8.60
2017-08-12T00:38:19.809Z,9.90
2017-08-12T00:39:17.104Z,8.70
2017-08-12T00:40:14.382Z,9.20
2017-08-12T00:41:11.672Z,9.60
2017-08-12T00:42:09.046Z,8.80
2017-08-12T00:43:06.306Z,9.40
2017-08-12T00:44:03.677Z,9.10
2017-08-12T00:45:00.944Z,9.10
2017-08-12T00:45:58.380Z,8.60
2017-08-12T00:46:55.669Z,7.70
2017-08-12T00:47:52.960Z,8.60
2017-08-12T00:48:50.285Z,7.50
2017-08-12T00:49:47.625Z,8.30
2017-08-12T00:50:44.920Z,9.10
2017-08-12T00:51:42.236Z,8.20
2017-08-12T00:52:39.612Z,9.30
2017-08-12T00:53:36.891Z,8.50
2017-08-12T00:54:34.158Z,8.10
2017-08-12T00:55:31.514Z,9.60
2017-08-12T00:56:28.822Z,9.40
2017-08-12T00:57:26.109Z,8.30
2017-08-12T00:58:23.373Z,9.60
2017-08-12T00:59:20.662Z,8.60
2017-08-12T01:00:17.892Z,8.80
2017-08-12T01:01:15.152Z,7.60
2017-08-12T01:02:12.480Z,9.10
2017-08-12T01:03:09.846Z,9.10
2017-08-12T01:04:07.124Z,8.50
2017-08-12T01:05:04.399Z,8.80
2017-08-12T01:06:01.683Z,8.90
2017-08-12T01:06:58.988Z,8.00
2017-08-12T01:07:56.267Z,8.10
2017-08-12T01:08:53.533Z,8.40
2017-08-12T01:09:50.792Z,8.30
2017-08-12T01:10:48.137Z,8.60
2017-08-12T01:11:45.433Z,9.20
2017-08-12T01:12:42.828Z,8.90
2017-08-12T01:13:40.136Z,7.70
2017-08-12T01:14:37.436Z,9.20
2017-08-12T01:15:34.851Z,7.50
2017-08-12T01:16:32.205Z,9.50
2017-08-12T01:17:29.473Z,8.80
2017-08-12T01:18:26.782Z,8.70
2017-08-12T01:19:24.024Z,9.10
2017-08-12T01:20:21.420Z,8.70
2017-08-12T01:21:18.688Z,9.20
2017-08-12T01:22:15.986Z,8.40
2017-08-12T01:23:13.283Z,8.90
2017-08-12T01:24:10.596Z,9.00
2017-08-12T01:25:07.898Z,7.90
2017-08-12T01:26:05.285Z,8.70
2017-08-12T01:27:02.569Z,8.60
2017-08-12T01:27:59.918Z,9.20
2017-08-12T01:28:57.172Z,9.30
2017-08-12T01:29:54.481Z,9.00
2017-08-12T01:30:51.753Z,8.00
2017-08-12T01:31:49.064Z,8.50
2017-08-12T01:32:46.378Z,8.20
2017-08-12T01:33:43.668Z,7.90
2017-08-12T01:34:40.939Z,9.10
2017-08-12T01:35:42.160Z,8.40
2017-08-12T01:36:39.446Z,7.30
2017-08-12T01:37:36.740Z,8.10
2017-08-12T01:38:34.001Z,7.50
2017-08-12T01:39:31.284Z,8.60
2017-08-12T01:40:28.556Z,7.60
2017-08-12T01:41:25.821Z,7.30
2017-08-12T01:42:23.126Z,9.40
2017-08-12T01:43:20.397Z,8.20
2017-08-12T01:44:17.837Z,7.00
2017-08-12T01:45:15.125Z,7.20
2017-08-12T01:46:12.412Z,7.00
2017-08-12T01:47:09.712Z,6.30
2017-08-12T01:48:07.014Z,7.20
2017-08-12T01:49:04.277Z,8.00
2017-08-12T01:50:01.606Z,7.70
2017-08-12T01:50:58.881Z,7.30
2017-08-12T01:51:56.184Z,7.50
2017-08-12T01:52:53.490Z,8.70
2017-08-12T01:53:50.757Z,6.90
2017-08-12T01:54:48.079Z,8.30
2017-08-12T01:55:45.376Z,7.60
2017-08-12T01:56:42.627Z,7.40
2017-08-12T01:57:39.904Z,7.20
2017-08-12T01:58:37.240Z,7.10
2017-08-12T01:59:34.533Z,6.80
2017-08-12T02:00:31.788Z,6.70
2017-08-12T02:01:29.064Z,6.90
2017-08-12T02:02:26.349Z,6.30
2017-08-12T02:03:23.681Z,6.10
2017-08-12T02:04:20.952Z,5.90
2017-08-12T02:05:18.252Z,6.90
2017-08-12T02:06:15.516Z,6.30
2017-08-12T02:07:12.788Z,6.10
2017-08-12T02:08:10.118Z,6.60
2017-08-12T02:09:07.421Z,6.80
2017-08-12T02:10:04.696Z,5.80
2017-08-12T02:11:02.005Z,6.40
2017-08-12T02:11:59.280Z,6.20
2017-08-12T02:12:56.556Z,5.50
2017-08-12T02:13:53.816Z,5.90
2017-08-12T02:14:51.086Z,5.50
2017-08-12T02:15:48.362Z,5.30
2017-08-12T02:16:45.674Z,4.90
2017-08-12T02:17:42.942Z,5.10
2017-08-12T02:18:40.232Z,5.80
2017-08-12T02:19:37.481Z,5.40
2017-08-12T02:20:34.750Z,5.40
2017-08-12T02:21:32.012Z,5.50
2017-08-12T02:22:29.291Z,5.00
2017-08-12T02:23:26.556Z,5.50
2017-08-12T02:24:23.852Z,5.90
2017-08-12T02:25:21.090Z,5.30
2017-08-12T02:26:18.365Z,5.60
2017-08-12T02:27:15.601Z,5.10
2017-08-12T02:28:12.869Z,5.70
2017-08-12T02:29:10.152Z,5.10
2017-08-12T02:30:07.612Z,5.40
2017-08-12T02:31:04.888Z,5.40
2017-08-12T02:32:02.176Z,5.80
2017-08-12T02:32:59.429Z,5.60
2017-08-12T02:33:56.742Z,5.60
2017-08-12T02:34:54.001Z,5.50
2017-08-12T02:35:51.312Z,4.70
2017-08-12T02:36:48.589Z,5.00
2017-08-12T02:37:45.879Z,4.60
2017-08-12T02:38:43.179Z,4.90
2017-08-12T02:39:40.533Z,4.60
2017-08-12T02:40:37.804Z,5.30
2017-08-12T02:41:35.068Z,4.70
2017-08-12T02:42:32.325Z,4.40
2017-08-12T02:43:29.599Z,5.80
2017-08-12T02:44:26.890Z,5.50
2017-08-12T02:45:24.164Z,4.30
2017-08-12T02:46:21.428Z,4.50
2017-08-12T02:47:18.728Z,5.00
2017-08-12T02:48:16.005Z,4.80
2017-08-12T02:49:13.330Z,4.30
2017-08-12T02:50:10.585Z,5.30
2017-08-12T02:51:07.866Z,5.10
2017-08-12T02:52:05.152Z,4.80
2017-08-12T02:53:02.435Z,5.60
2017-08-12T02:53:59.750Z,4.20
2017-08-12T02:54:57.024Z,4.10
2017-08-12T02:55:54.292Z,5.20
2017-08-12T02:56:51.621Z,5.30
2017-08-12T02:57:48.884Z,4.30
2017-08-12T02:58:46.150Z,4.00
2017-08-12T02:59:43.451Z,5.10
2017-08-12T03:00:40.736Z,5.50
2017-08-12T03:01:38.269Z,4.30
2017-08-12T03:02:35.548Z,4.90
2017-08-12T03:03:32.799Z,5.20
2017-08-12T03:04:30.068Z,4.50
2017-08-12T03:05:27.341Z,4.90
2017-08-12T03:06:24.631Z,4.10
2017-08-12T03:07:21.888Z,5.30
2017-08-12T03:08:19.152Z,5.30
2017-08-12T03:09:16.412Z,4.80
2017-08-12T03:10:13.696Z,4.60
2017-08-12T03:11:10.937Z,4.70
2017-08-12T03:12:08.216Z,4.90
2017-08-12T03:13:05.482Z,4.90
2017-08-12T03:14:02.766Z,4.30
2017-08-12T03:15:00.057Z,4.30
2017-08-12T03:15:57.336Z,4.50
2017-08-12T03:16:54.589Z,4.40
2017-08-12T03:17:51.872Z,4.20
2017-08-12T03:18:49.131Z,4.30
2017-08-12T03:19:46.414Z,4.70
2017-08-12T03:20:43.747Z,4.20
2017-08-12T03:21:41.036Z,4.50
2017-08-12T03:22:38.308Z,4.40
2017-08-12T03:23:35.597Z,3.80
2017-08-12T03:24:32.872Z,4.80
2017-08-12T03:25:30.156Z,4.30
2017-08-12T03:26:27.421Z,4.40
2017-08-12T03:27:24.685Z,4.90
2017-08-12T03:28:21.946Z,4.30
2017-08-12T03:29:19.218Z,4.80
2017-08-12T03:30:16.479Z,4.90
2017-08-12T03:31:13.781Z,4.40
2017-08-12T03:32:11.041Z,3.80
2017-08-12T03:33:08.313Z,4.10
2017-08-12T03:34:05.572Z,4.00
2017-08-12T03:35:02.869Z,3.80
2017-08-12T03:36:00.160Z,4.00
2017-08-12T03:36:57.436Z,3.90
2017-08-12T03:37:54.705Z,4.20
2017-08-12T03:38:51.980Z,4.50
2017-08-12T03:39:49.313Z,3.80
2017-08-12T03:40:46.631Z,3.20
2017-08-12T03:41:43.886Z,4.00
2017-08-12T03:42:41.148Z,4.20
2017-08-12T03:43:38.418Z,4.30
2017-08-12T03:44:35.697Z,4.40
2017-08-12T03:45:32.968Z,3.90
2017-08-12T03:46:30.236Z,4.30
2017-08-12T03:47:27.504Z,3.90
2017-08-12T03:48:24.969Z,3.90
2017-08-12T03:49:22.232Z,3.10
2017-08-12T03:50:19.512Z,4.20
2017-08-12T03:51:16.784Z,3.80
2017-08-12T03:52:14.048Z,3.90
2017-08-12T03:53:11.283Z,3.90
2017-08-12T03:54:08.596Z,3.90
2017-08-12T03:55:05.844Z,3.60
2017-08-12T03:56:03.119Z,3.40
2017-08-12T03:57:00.362Z,3.40
2017-08-12T03:57:57.638Z,3.40
2017-08-12T03:58:54.880Z,4.10
2017-08-12T03:59:52.158Z,4.00
2017-08-12T04:00:49.393Z,2.90
2017-08-12T04:01:46.696Z,3.50
2017-08-12T04:02:44.045Z,3.60
2017-08-12T04:03:41.304Z,3.70
2017-08-12T04:04:38.548Z,4.10
2017-08-12T04:05:35.816Z,4.10
2017-08-12T04:06:33.087Z,3.60
2017-08-12T04:07:30.372Z,3.60
2017-08-12T04:08:27.632Z,3.50
2017-08-12T04:09:24.953Z,3.60
2017-08-12T04:10:22.209Z,3.70
2017-08-12T04:11:19.529Z,4.30
2017-08-12T04:12:16.784Z,3.80
2017-08-12T04:13:14.060Z,4.40
2017-08-12T04:14:11.321Z,3.80
2017-08-12T04:15:08.594Z,3.20
2017-08-12T04:16:05.861Z,3.60
2017-08-12T04:17:03.156Z,4.00
2017-08-12T04:18:00.395Z,3.90
2017-08-12T04:18:57.650Z,3.80
2017-08-12T04:19:54.896Z,4.20
2017-08-12T04:20:52.185Z,3.60
2017-08-12T04:21:49.480Z,3.70
2017-08-12T04:22:46.793Z,3.70
2017-08-12T04:23:44.133Z,3.80
2017-08-12T04:24:41.474Z,3.80
2017-08-12T04:25:38.699Z,4.00
2017-08-12T04:26:36.033Z,3.60
2017-08-12T04:27:33.349Z,3.30
2017-08-12T04:28:30.621Z,3.60
2017-08-12T04:29:27.864Z,4.30
2017-08-12T04:30:25.125Z,4.00
2017-08-12T04:31:22.366Z,3.50
2017-08-12T04:32:19.665Z,4.30
2017-08-12T04:33:16.923Z,4.60
2017-08-12T04:34:14.229Z,4.00
2017-08-12T04:35:11.489Z,3.70
2017-08-12T04:36:08.744Z,4.10
2017-08-12T04:37:06.055Z,3.30
2017-08-12T04:38:03.308Z,3.60
2017-08-12T04:39:00.580Z,4.00
2017-08-12T04:39:57.832Z,3.50
2017-08-12T04:40:55.196Z,4.30
2017-08-12T04:41:52.451Z,4.40
2017-08-12T04:42:49.704Z,4.10
2017-08-12T04:43:47.000Z,4.00
2017-08-12T04:44:44.243Z,3.90
2017-08-12T04:45:41.498Z,3.50
2017-08-12T04:46:38.752Z,4.60
2017-08-12T04:47:36.016Z,3.40
2017-08-12T04:48:33.257Z,3.70
2017-08-12T04:49:30.556Z,3.80
2017-08-12T04:50:27.805Z,4.20
2017-08-12T04:51:25.074Z,3.60
2017-08-12T04:52:22.353Z,4.00
2017-08-12T04:53:19.665Z,3.50
2017-08-12T04:54:16.916Z,4.30
2017-08-12T04:55:14.168Z,3.10
2017-08-12T04:56:11.420Z,3.90
2017-08-12T04:57:08.687Z,3.80
2017-08-12T04:58:05.960Z,4.10
2017-08-12T04:59:03.212Z,4.00
2017-08-12T05:00:00.472Z,4.00
2017-08-12T05:00:57.732Z,3.80
2017-08-12T05:01:54.979Z,4.20
2017-08-12T05:02:52.248Z,3.60
2017-08-12T05:03:49.492Z,3.90
2017-08-12T05:04:46.764Z,3.70
2017-08-12T05:05:44.009Z,3.80
2017-08-12T05:06:41.268Z,3.50
2017-08-12T05:07:38.521Z,3.50
2017-08-12T05:08:35.825Z,4.20
2017-08-12T05:09:33.084Z,3.90
2017-08-12T05:10:30.744Z,3.40
2017-08-12T05:11:28.001Z,3.80
2017-08-12T05:12:25.267Z,4.90
2017-08-12T05:13:22.544Z,4.00
2017-08-12T05:14:19.822Z,4.10
2017-08-12T05:15:17.124Z,4.10
2017-08-12T05:16:14.396Z,3.30
2017-08-12T05:17:11.630Z,3.60
2017-08-12T05:18:08.909Z,3.80
2017-08-12T05:19:06.157Z,4.10
2017-08-12T05:20:03.412Z,3.40
2017-08-12T05:21:00.710Z,4.20
2017-08-12T05:21:57.968Z,3.60
2017-08-12T05:22:55.250Z,4.60
2017-08-12T05:23:52.501Z,3.90
2017-08-12T05:24:49.756Z,4.30
2017-08-12T05:25:47.040Z,4.00
2017-08-12T05:26:44.304Z,3.40
2017-08-12T05:27:41.550Z,4.00
2017-08-12T05:28:38.828Z,3.60
2017-08-12T05:29:36.172Z,4.10
2017-08-12T05:30:33.418Z,3.60
2017-08-12T05:31:30.698Z,3.90
2017-08-12T05:32:27.993Z,4.30
2017-08-12T05:33:25.292Z,3.40
2017-08-12T05:34:22.672Z,4.20
2017-08-12T05:35:19.960Z,3.50
2017-08-12T05:36:20.239Z,4.20
2017-08-12T05:37:17.571Z,3.80
2017-08-12T05:38:14.893Z,3.80
2017-08-12T05:39:12.217Z,3.60
2017-08-12T05:40:09.468Z,4.70
2017-08-12T05:41:06.767Z,3.70
2017-08-12T05:42:04.038Z,3.90
2017-08-12T05:43:01.309Z,4.60
2017-08-12T05:43:58.593Z,3.60
2017-08-12T05:44:56.320Z,3.70
2017-08-12T05:45:54.251Z,4.10
2017-08-12T05:46:51.501Z,3.80
2017-08-12T05:47:48.918Z,4.00
2017-08-12T05:48:46.246Z,4.10
2017-08-12T05:49:43.564Z,4.30
2017-08-12T05:50:40.843Z,4.10
2017-08-12T05:51:38.093Z,4.10
2017-08-12T05:52:35.389Z,4.10
2017-08-12T05:53:32.708Z,4.10
2017-08-12T05:54:30.005Z,4.50
2017-08-12T05:55:27.263Z,4.30
2017-08-12T05:56:24.569Z,3.90
2017-08-12T05:57:21.872Z,4.30
2017-08-12T05:58:19.226Z,4.50
2017-08-12T05:59:16.585Z,4.00
2017-08-12T06:00:13.922Z,4.30
2017-08-12T06:01:11.204Z,4.20
2017-08-12T06:02:08.545Z,3.90
2017-08-12T06:03:05.855Z,4.00
2017-08-12T06:04:03.192Z,3.80
2017-08-12T06:05:00.548Z,4.40
2017-08-12T06:05:57.853Z,4.40
2017-08-12T06:06:55.165Z,4.20
2017-08-12T06:07:52.514Z,4.30
2017-08-12T06:08:49.853Z,4.80
2017-08-12T06:09:47.346Z,4.80
2017-08-12T06:10:44.697Z,4.30
2017-08-12T06:11:42.032Z,4.30
2017-08-12T06:12:39.324Z,4.80
2017-08-12T06:13:36.647Z,4.50
2017-08-12T06:14:33.981Z,4.30
2017-08-12T06:15:31.297Z,4.40
2017-08-12T06:16:28.580Z,4.20
2017-08-12T06:17:25.928Z,4.50
2017-08-12T06:18:23.326Z,4.60
2017-08-12T06:19:20.714Z,4.30
2017-08-12T06:20:18.070Z,5.00
2017-08-12T06:21:15.473Z,4.60
2017-08-12T06:22:12.854Z,4.50
2017-08-12T06:23:10.245Z,3.70
2017-08-12T06:24:07.629Z,4.20
2017-08-12T06:25:05.225Z,4.20
2017-08-12T06:26:02.570Z,3.80
2017-08-12T06:26:59.928Z,4.10
2017-08-12T06:27:57.208Z,4.10
2017-08-12T06:28:54.556Z,4.00
2017-08-12T06:29:51.849Z,4.10
2017-08-12T06:30:49.130Z,4.90
2017-08-12T06:31:46.396Z,3.70
2017-08-12T06:32:43.671Z,4.30
2017-08-12T06:33:40.973Z,4.60
2017-08-12T06:34:38.308Z,4.50
2017-08-12T06:35:35.625Z,4.40
2017-08-12T06:36:32.975Z,4.60
2017-08-12T06:37:30.255Z,4.10
2017-08-12T06:38:27.553Z,4.30
2017-08-12T06:39:24.816Z,3.90
2017-08-12T06:40:22.110Z,4.80
2017-08-12T06:41:19.485Z,4.00
2017-08-12T06:42:16.797Z,4.40
2017-08-12T06:43:14.097Z,4.70
2017-08-12T06:44:11.395Z,4.90
2017-08-12T06:45:08.764Z,4.00
2017-08-12T06:46:06.126Z,4.40
2017-08-12T06:47:03.429Z,4.70
2017-08-12T06:48:00.756Z,4.10
2017-08-12T06:48:58.016Z,4.00
2017-08-12T06:49:55.308Z,4.20
2017-08-12T06:50:52.627Z,4.20
2017-08-12T06:51:49.997Z,4.70
2017-08-12T06:52:47.299Z,4.30
2017-08-12T06:53:44.632Z,3.90
2017-08-12T06:54:42.054Z,4.30
2017-08-12T06:55:39.352Z,3.80
2017-08-12T06:56:36.666Z,4.60
2017-08-12T06:57:33.957Z,3.80
2017-08-12T06:58:31.239Z,4.30
2017-08-12T06:59:28.497Z,4.00
2017-08-12T07:00:25.780Z,3.90
2017-08-12T07:01:23.332Z,4.20
2017-08-12T07:02:20.717Z,4.20
2017-08-12T07:03:18.064Z,4.40
2017-08-12T07:04:15.368Z,4.20
2017-08-12T07:05:12.837Z,4.20
2017-08-12T07:06:10.207Z,3.60
2017-08-12T07:07:07.516Z,4.20
2017-08-12T07:08:04.765Z,3.90
2017-08-12T07:09:02.025Z,5.10
2017-08-12T07:09:59.376Z,3.70
2017-08-12T07:10:56.692Z,3.60
2017-08-12T07:11:54.080Z,4.30
2017-08-12T07:12:51.356Z,3.70
2017-08-12T07:13:48.634Z,4.30
2017-08-12T07:14:45.897Z,4.10
2017-08-12T07:15:43.149Z,4.60
2017-08-12T07:16:40.513Z,4.10
2017-08-12T07:17:37.828Z,3.60
2017-08-12T07:18:35.251Z,3.90
2017-08-12T07:19:32.533Z,4.60
2017-08-12T07:20:29.792Z,4.50
2017-08-12T07:21:27.081Z,4.30
2017-08-12T07:22:24.360Z,3.70
2017-08-12T07:23:21.696Z,4.70
2017-08-12T07:24:19.025Z,4.70
2017-08-12T07:25:16.276Z,4.50
2017-08-12T07:26:13.672Z,4.50
2017-08-12T07:27:11.005Z,4.60
2017-08-12T07:28:08.328Z,4.60
2017-08-12T07:29:05.801Z,4.10
2017-08-12T07:30:03.217Z,4.00
2017-08-12T07:31:00.488Z,4.70
2017-08-12T07:31:57.774Z,4.20
2017-08-12T07:32:55.025Z,4.20
2017-08-12T07:33:52.503Z,4.00
2017-08-12T07:34:49.909Z,4.50
2017-08-12T07:35:47.308Z,4.30
2017-08-12T07:36:44.636Z,4.00
2017-08-12T07:37:41.971Z,4.60
2017-08-12T07:38:43.204Z,4.40
2017-08-12T07:39:45.264Z,4.20
2017-08-12T07:40:42.567Z,4.00
2017-08-12T07:41:39.884Z,3.90
2017-08-12T07:42:37.199Z,4.00
2017-08-12T07:43:34.636Z,4.50
2017-08-12T07:44:32.096Z,4.80
2017-08-12T07:45:29.428Z,4.70
2017-08-12T07:46:26.770Z,3.80
2017-08-12T07:47:24.105Z,4.20
2017-08-12T07:48:21.595Z,4.40
2017-08-12T07:49:23.918Z,4.50
2017-08-12T07:50:21.289Z,4.70
2017-08-12T07:51:18.557Z,4.80
2017-08-12T07:52:16.021Z,4.10
2017-08-12T07:53:13.312Z,5.00
2017-08-12T07:54:10.578Z,4.90
2017-08-12T07:55:07.800Z,4.80
2017-08-12T07:56:05.125Z,4.30
2017-08-12T07:57:02.461Z,4.30
2017-08-12T07:57:59.748Z,4.70
2017-08-12T07:58:56.988Z,4.90
2017-08-12T07:59:54.261Z,4.10
2017-08-12T08:00:51.516Z,4.20
2017-08-12T08:01:48.814Z,5.40
2017-08-12T08:02:46.097Z,4.50
2017-08-12T08:03:43.430Z,4.40
2017-08-12T08:04:40.803Z,4.50
2017-08-12T08:05:38.074Z,5.10
2017-08-12T08:06:35.381Z,5.10
2017-08-12T08:07:32.672Z,5.40
2017-08-12T08:08:29.929Z,4.80
2017-08-12T08:09:27.293Z,4.10
2017-08-12T08:10:24.533Z,4.90
2017-08-12T08:11:21.902Z,5.00
2017-08-12T08:12:19.184Z,5.30
2017-08-12T08:13:16.471Z,4.70
2017-08-12T08:14:13.745Z,5.10
2017-08-12T08:15:11.032Z,5.00
2017-08-12T08:16:08.258Z,4.80
2017-08-12T08:17:05.517Z,4.90
2017-08-12T08:18:02.812Z,4.50
2017-08-12T08:19:00.121Z,5.10
2017-08-12T08:19:57.362Z,5.30
2017-08-12T08:20:54.656Z,4.80
2017-08-12T08:21:51.893Z,5.10
2017-08-12T08:22:49.282Z,5.40
2017-08-12T08:23:46.543Z,4.70
2017-08-12T08:24:43.822Z,4.50
2017-08-12T08:25:41.086Z,5.60
2017-08-12T08:26:38.369Z,5.40
2017-08-12T08:27:35.632Z,5.60
2017-08-12T08:28:33.034Z,4.70
2017-08-12T08:29:30.310Z,5.00
2017-08-12T08:30:27.574Z,5.60
2017-08-12T08:31:24.833Z,5.60
2017-08-12T08:32:22.117Z,5.90
2017-08-12T08:33:19.428Z,4.80
2017-08-12T08:34:17.516Z,5.50
2017-08-12T08:35:14.749Z,4.90
2017-08-12T08:36:12.020Z,5.40
2017-08-12T08:37:09.256Z,5.70
2017-08-12T08:38:06.537Z,5.40
2017-08-12T08:39:03.790Z,5.50
2017-08-12T08:40:01.104Z,5.70
2017-08-12T08:40:58.433Z,4.90
2017-08-12T08:41:55.925Z,5.40
2017-08-12T08:42:53.341Z,5.80
2017-08-12T08:43:50.638Z,5.60
2017-08-12T08:44:47.937Z,5.80
2017-08-12T08:45:45.212Z,6.50
2017-08-12T08:46:42.501Z,5.60
2017-08-12T08:47:39.778Z,6.80
2017-08-12T08:48:37.381Z,5.40
2017-08-12T08:49:34.647Z,7.00
2017-08-12T08:50:32.033Z,5.30
2017-08-12T08:51:29.329Z,6.30
2017-08-12T08:52:26.653Z,6.40
2017-08-12T08:53:23.923Z,6.30
2017-08-12T08:54:21.159Z,7.00
2017-08-12T08:55:18.492Z,7.30
2017-08-12T08:56:15.760Z,6.90
2017-08-12T08:57:13.101Z,6.70
2017-08-12T08:58:10.448Z,7.40
2017-08-12T08:59:07.830Z,7.70
2017-08-12T09:00:05.112Z,7.40
2017-08-12T09:01:02.501Z,7.50
2017-08-12T09:01:59.741Z,8.50
2017-08-12T09:02:57.097Z,7.80
2017-08-12T09:03:54.441Z,7.90
2017-08-12T09:04:51.712Z,7.30
2017-08-12T09:05:48.951Z,8.60
2017-08-12T09:06:46.212Z,9.30
2017-08-12T09:07:43.551Z,10.60
2017-08-12T09:08:40.849Z,9.50
2017-08-12T09:09:38.113Z,10.30
2017-08-12T09:10:35.373Z,9.80
2017-08-12T09:11:32.698Z,10.30
2017-08-12T09:12:30.086Z,10.30
2017-08-12T09:13:27.544Z,10.90
2017-08-12T09:14:24.949Z,9.90
2017-08-12T09:15:22.217Z,9.80
2017-08-12T09:16:19.515Z,9.20
2017-08-12T09:17:16.756Z,9.60
2017-08-12T09:18:14.124Z,8.90
2017-08-12T09:19:11.541Z,10.60
2017-08-12T09:20:08.852Z,9.10
2017-08-12T09:21:06.113Z,10.00
2017-08-12T09:22:03.389Z,10.30
2017-08-12T09:23:00.766Z,9.60
2017-08-12T09:23:58.160Z,9.30
2017-08-12T09:24:55.386Z,10.20
2017-08-12T09:25:52.713Z,9.70
2017-08-12T09:26:49.960Z,9.70
2017-08-12T09:27:47.461Z,9.70
2017-08-12T09:28:44.754Z,9.70
2017-08-12T09:29:42.044Z,9.30
2017-08-12T09:30:39.292Z,9.80
2017-08-12T09:31:36.573Z,9.00
2017-08-12T09:32:33.961Z,10.80
2017-08-12T09:33:31.222Z,10.80
2017-08-12T09:34:28.517Z,11.20
2017-08-12T09:35:26.205Z,9.60
2017-08-12T09:36:23.472Z,10.20
2017-08-12T09:37:20.744Z,9.60
2017-08-12T09:38:18.089Z,11.00
2017-08-12T09:39:15.654Z,9.90
2017-08-12T09:40:12.937Z,10.10
2017-08-12T09:41:10.210Z,9.20
2017-08-12T09:42:08.251Z,8.80
2017-08-12T09:43:05.733Z,9.90
2017-08-12T09:44:03.019Z,9.70
2017-08-12T09:45:00.300Z,9.70
2017-08-12T09:45:57.669Z,10.60
2017-08-12T09:46:55.154Z,10.30
2017-08-12T09:47:53.065Z,10.30
2017-08-12T09:48:50.425Z,10.10
2017-08-12T09:49:47.728Z,10.80
2017-08-12T09:50:45.064Z,11.40
2017-08-12T09:51:42.300Z,11.10
2017-08-12T09:52:39.548Z,11.20
2017-08-12T09:53:36.988Z,10.30
2017-08-12T09:54:34.285Z,11.20
2017-08-12T09:55:31.568Z,10.40
2017-08-12T09:56:28.840Z,9.10
2017-08-12T09:57:26.074Z,11.00
2017-08-12T09:58:23.429Z,10.60
2017-08-12T09:59:20.718Z,11.30
2017-08-12T10:00:18.061Z,11.20
2017-08-12T10:01:15.297Z,10.70
2017-08-12T10:02:12.569Z,10.00
2017-08-12T10:03:10.241Z,9.70
2017-08-12T10:04:07.554Z,9.90
2017-08-12T10:05:04.925Z,9.40
2017-08-12T10:06:02.205Z,10.00
2017-08-12T10:06:59.469Z,10.00
2017-08-12T10:07:56.762Z,9.50
2017-08-12T10:08:54.000Z,9.90
2017-08-12T10:09:51.275Z,9.90
2017-08-12T10:10:48.601Z,9.40
2017-08-12T10:11:45.952Z,10.00
2017-08-12T10:12:43.268Z,10.00
2017-08-12T10:13:40.801Z,9.20
2017-08-12T10:14:38.153Z,10.40
2017-08-12T10:15:35.529Z,10.10
2017-08-12T10:16:32.846Z,9.40
2017-08-12T10:17:30.122Z,8.80
2017-08-12T10:18:27.477Z,9.80
2017-08-12T10:19:24.736Z,9.00
2017-08-12T10:20:22.039Z,8.00
2017-08-12T10:21:19.505Z,8.30
2017-08-12T10:22:16.831Z,7.80
2017-08-12T10:23:14.105Z,8.10
2017-08-12T10:24:11.344Z,6.50
2017-08-12T10:25:08.606Z,7.60
2017-08-12T10:26:05.877Z,6.40
2017-08-12T10:27:03.145Z,7.10
2017-08-12T10:28:00.394Z,6.50
2017-08-12T10:28:57.877Z,7.00
2017-08-12T10:29:55.181Z,6.40
2017-08-12T10:30:52.600Z,6.40
2017-08-12T10:31:49.905Z,7.20
2017-08-12T10:32:47.188Z,5.80
2017-08-12T10:33:44.520Z,6.30
2017-08-12T10:34:41.793Z,7.00
2017-08-12T10:35:39.109Z,7.00
2017-08-12T10:36:36.411Z,6.20
2017-08-12T10:37:33.818Z,6.20
2017-08-12T10:38:31.179Z,6.10
2017-08-12T10:39:28.429Z,5.70
2017-08-12T10:40:25.688Z,6.30
2017-08-12T10:41:22.984Z,6.60
2017-08-12T10:42:20.315Z,5.80
2017-08-12T10:43:17.565Z,6.00
2017-08-12T10:44:14.849Z,6.20
2017-08-12T10:45:12.101Z,6.00
2017-08-12T10:46:09.456Z,5.70
2017-08-12T10:47:06.757Z,6.40
2017-08-12T10:48:04.343Z,5.80
2017-08-12T10:49:01.772Z,5.60
2017-08-12T10:49:59.111Z,6.50
2017-08-12T10:50:56.485Z,6.10
2017-08-12T10:51:54.072Z,5.80
2017-08-12T10:52:51.315Z,6.30
2017-08-12T10:53:48.800Z,5.80
2017-08-12T10:54:46.313Z,5.80
2017-08-12T10:55:43.591Z,6.10
2017-08-12T10:56:40.949Z,6.20
2017-08-12T10:57:38.257Z,6.50
2017-08-12T10:58:35.733Z,6.10
2017-08-12T10:59:33.068Z,5.10
2017-08-12T11:00:30.432Z,6.10
2017-08-12T11:01:27.703Z,6.40
2017-08-12T11:02:24.967Z,6.60
2017-08-12T11:03:22.267Z,6.50
2017-08-12T11:04:19.521Z,5.90
2017-08-12T11:05:16.784Z,6.10
2017-08-12T11:06:14.108Z,6.00
2017-08-12T11:07:11.429Z,6.80
2017-08-12T11:08:08.822Z,6.00
2017-08-12T11:09:06.393Z,5.40
2017-08-12T11:10:04.089Z,6.60
2017-08-12T11:11:01.960Z,7.60
2017-08-12T11:11:59.790Z,6.70
2017-08-12T11:12:57.070Z,5.80
2017-08-12T11:13:54.338Z,6.60
2017-08-12T11:14:51.609Z,6.20
2017-08-12T11:15:48.840Z,6.10
2017-08-12T11:16:46.093Z,5.80
2017-08-12T11:17:43.377Z,5.90
2017-08-12T11:18:40.666Z,5.90
2017-08-12T11:19:37.900Z,5.60
2017-08-12T11:20:35.168Z,4.50
2017-08-12T11:21:32.412Z,5.70
2017-08-12T11:22:29.708Z,5.80
2017-08-12T11:23:26.989Z,5.70
2017-08-12T11:24:24.285Z,5.90
2017-08-12T11:25:21.602Z,5.70
2017-08-12T11:26:18.864Z,5.00
2017-08-12T11:27:16.256Z,5.00
2017-08-12T11:28:13.512Z,6.50
2017-08-12T11:29:10.816Z,6.10
2017-08-12T11:30:08.115Z,6.00
2017-08-12T11:31:05.477Z,6.40
2017-08-12T11:32:02.737Z,5.90
2017-08-12T11:33:00.015Z,5.00
2017-08-12T11:33:57.339Z,4.90
2017-08-12T11:34:54.580Z,5.60
2017-08-12T11:35:51.834Z,6.40
2017-08-12T11:36:49.154Z,6.10
2017-08-12T11:37:46.593Z,5.30
2017-08-12T11:38:43.916Z,5.40
2017-08-12T11:39:41.261Z,5.30
2017-08-12T11:40:38.596Z,5.20
2017-08-12T11:41:35.859Z,5.40
2017-08-12T11:42:33.405Z,5.10
2017-08-12T11:43:30.677Z,5.10
2017-08-12T11:44:27.976Z,5.40
2017-08-12T11:45:25.216Z,5.20
2017-08-12T11:46:22.454Z,5.70
2017-08-12T11:47:19.800Z,5.70
2017-08-12T11:48:17.044Z,6.10
2017-08-12T11:49:14.302Z,4.80
2017-08-12T11:50:11.553Z,4.80
2017-08-12T11:51:08.905Z,5.00
2017-08-12T11:52:06.164Z,5.50
2017-08-12T11:53:03.433Z,5.40
2017-08-12T11:54:00.656Z,4.60
2017-08-12T11:54:57.957Z,5.10
2017-08-12T11:55:55.221Z,5.60
2017-08-12T11:56:52.483Z,5.70
2017-08-12T11:57:49.831Z,5.30
2017-08-12T11:58:47.173Z,5.80
2017-08-12T11:59:44.490Z,5.80
2017-08-12T12:01:39.194Z,4.70
2017-08-12T12:02:36.752Z,4.90
2017-08-12T12:03:34.022Z,4.80
2017-08-12T12:04:31.389Z,4.80
2017-08-12T12:05:28.618Z,4.90
2017-08-12T12:06:25.888Z,5.10
2017-08-12T12:07:23.184Z,4.50
2017-08-12T12:08:20.468Z,4.60
2017-08-12T12:09:17.770Z,5.30
2017-08-12T12:10:15.052Z,4.30
2017-08-12T12:11:12.321Z,3.90
2017-08-12T12:12:09.659Z,4.00
2017-08-12T12:13:07.078Z,4.30
2017-08-12T12:14:04.453Z,4.70
2017-08-12T12:15:01.740Z,4.80
2017-08-12T12:15:58.994Z,4.70
2017-08-12T12:16:56.261Z,4.40
2017-08-12T12:17:53.552Z,4.90
2017-08-12T12:18:50.844Z,4.60
2017-08-12T12:19:48.096Z,4.30
2017-08-12T12:20:45.356Z,5.00
2017-08-12T12:21:42.609Z,5.70
2017-08-12T12:22:39.873Z,4.70
2017-08-12T12:23:37.217Z,4.70
2017-08-12T12:24:34.497Z,5.00
2017-08-12T12:25:31.780Z,4.20
2017-08-12T12:26:29.150Z,5.20
2017-08-12T12:27:26.409Z,5.10
2017-08-12T12:28:23.660Z,4.70
2017-08-12T12:29:20.932Z,4.80
2017-08-12T12:30:18.156Z,6.20
2017-08-12T12:31:15.427Z,4.60
2017-08-12T12:32:12.684Z,5.10
2017-08-12T12:33:09.939Z,5.10
2017-08-12T12:34:07.243Z,5.00
2017-08-12T12:35:04.642Z,4.90
2017-08-12T12:36:01.944Z,5.60
2017-08-12T12:36:59.259Z,5.70
2017-08-12T12:37:56.514Z,5.20
2017-08-12T12:38:53.809Z,5.10
2017-08-12T12:39:51.121Z,5.00
2017-08-12T12:40:48.412Z,5.00
2017-08-12T12:41:45.661Z,4.90